Time;durP1;ratioP1;P1;durP2;ratioP2;P2;SDS_P1;SDS_P2;PMS_P1;PMS_P2;Temp;Humidity;BMP_temperature;BMP_pressure;BME280_temperature;BME280_humidity;BME280_pressure;Samples;Min_cycle;Max_cycle;Signal;HPM_P1;HPM_P2
2022/02/04 00:21:43;;;;;;;798.33;412.42;;;;;;;;;;4950577;28;20105;-78
2022/02/04 00:24:10;;;;;;;795.65;407.10;;;;;;;;;;4948368;28;20031;-78
2022/02/04 00:26:44;;;;;;;794.08;405.58;;;;;;;;;;4945792;28;20038;-79
2022/02/04 00:31:41;;;;;;;798.50;418.02;;;;;;;;;;4963622;28;20043;-78
2022/02/04 00:34:12;;;;;;;793.63;407.40;;;;;;;;;;4944276;28;20046;-78
2022/02/04 00:39:15;;;;;;;795.40;410.85;;;;;;;;;;4937374;28;20336;-78
2022/02/04 00:41:43;;;;;;;795.30;408.83;;;;;;;;;;4950809;28;20334;-78
2022/02/04 00:44:19;;;;;;;797.95;416.67;;;;;;;;;;4944853;28;20469;-78
2022/02/04 01:26:37;;;;;;;793.40;409.90;;;;;;;;;;4938944;28;20050;-77
2022/02/04 01:29:05;;;;;;;798.33;421.60;;;;;;;;;;4972878;28;20043;-77
2022/02/04 01:31:32;;;;;;;797.15;416.50;;;;;;;;;;4959568;28;20058;-77
2022/02/04 01:33:58;;;;;;;794.47;408.05;;;;;;;;;;4970117;28;20043;-78
2022/02/04 01:36:24;;;;;;;798.22;417.83;;;;;;;;;;4957433;28;20035;-78
2022/02/04 01:38:50;;;;;;;793.70;401.83;;;;;;;;;;4955178;28;20027;-78
2022/02/04 01:41:16;;;;;;;796.28;412.55;;;;;;;;;;4957222;28;20038;-77
2022/02/04 01:43:43;;;;;;;794.35;410.63;;;;;;;;;;4972858;28;20471;-78
2022/02/04 01:46:10;;;;;;;799.95;415.75;;;;;;;;;;4948287;28;20035;-78
2022/02/04 01:48:36;;;;;;;799.63;420.40;;;;;;;;;;4960666;28;20499;-79
2022/02/04 01:51:04;;;;;;;797.05;415.73;;;;;;;;;;4958670;28;20398;-78
2022/02/04 01:53:31;;;;;;;797.47;416.30;;;;;;;;;;4957776;28;20035;-78
2022/02/04 01:55:57;;;;;;;793.70;406.05;;;;;;;;;;4975896;28;20031;-78
2022/02/04 01:58:24;;;;;;;792.15;407.33;;;;;;;;;;4987760;28;20459;-78
2022/02/04 02:00:50;;;;;;;793.08;405.70;;;;;;;;;;4971966;28;20035;-78
2022/02/04 02:03:22;;;;;;;795.95;412.50;;;;;;;;;;4956485;28;20039;-78
2022/02/04 02:05:49;;;;;;;796.20;417.40;;;;;;;;;;4970923;28;20055;-79
2022/02/04 02:08:17;;;;;;;796.90;418.05;;;;;;;;;;4977891;28;20039;-77
2022/02/04 02:10:44;;;;;;;797.47;417.48;;;;;;;;;;4954026;28;20034;-78
2022/02/04 02:35:09;;;;;;;794.67;411.42;;;;;;;;;;4957497;28;20067;-78
2022/02/04 02:45:46;;;;;;;790.15;401.05;;;;;;;;;;4957449;28;20482;-78
2022/02/04 02:51:03;;;;;;;792.47;407.35;;;;;;;;;;4941107;28;20043;-78
2022/02/04 02:59:08;;;;;;;793.53;397.50;;;;;;;;;;4968562;28;20131;-77
2022/02/04 03:01:34;;;;;;;792.17;406.63;;;;;;;;;;4966688;28;20479;-78
2022/02/04 03:04:06;;;;;;;793.88;407.67;;;;;;;;;;4956727;28;20027;-79
2022/02/04 03:06:32;;;;;;;801.53;417.85;;;;;;;;;;4948771;28;20454;-78
2022/02/04 03:08:58;;;;;;;798.97;416.50;;;;;;;;;;5011998;28;20035;-77
2022/02/04 03:11:24;;;;;;;794.90;411.83;;;;;;;;;;4962700;28;20023;-78
2022/02/04 03:13:50;;;;;;;798.03;415.90;;;;;;;;;;4983168;28;20031;-78
2022/02/04 03:16:18;;;;;;;794.97;413.67;;;;;;;;;;4930507;28;20062;-78
2022/02/04 03:18:48;;;;;;;794.42;409.58;;;;;;;;;;4995060;28;20304;-78
2022/02/04 03:21:17;;;;;;;795.60;404.38;;;;;;;;;;4962813;28;20365;-77
2022/02/04 03:23:50;;;;;;;796.05;409.42;;;;;;;;;;4946684;28;20024;-78
2022/02/04 03:26:28;;;;;;;795.45;406.38;;;;;;;;;;4995653;28;20092;-78
2022/02/04 03:28:54;;;;;;;795.67;413.02;;;;;;;;;;4986722;28;20221;-77
2022/02/04 03:31:20;;;;;;;790.10;402.83;;;;;;;;;;4959459;28;20580;-78
2022/02/04 03:33:47;;;;;;;793.78;407.83;;;;;;;;;;4952384;28;20077;-77
2022/02/04 03:36:13;;;;;;;798.75;420.42;;;;;;;;;;4969726;28;20394;-78
2022/02/04 03:38:39;;;;;;;793.92;414.52;;;;;;;;;;4975914;28;20114;-78
2022/02/04 03:41:07;;;;;;;793.95;413.30;;;;;;;;;;4979410;28;20106;-77
2022/02/04 03:43:33;;;;;;;792.85;411.10;;;;;;;;;;4979473;28;20049;-78
2022/02/04 03:45:59;;;;;;;798.13;421.90;;;;;;;;;;4958416;28;20244;-78
2022/02/04 03:48:25;;;;;;;795.83;413.73;;;;;;;;;;4949584;28;20020;-79
2022/02/04 03:50:51;;;;;;;793.25;402.80;;;;;;;;;;4965501;28;20031;-77
2022/02/04 03:53:17;;;;;;;795.58;416.73;;;;;;;;;;4979251;28;20024;-78
2022/02/04 03:55:45;;;;;;;795.35;416.20;;;;;;;;;;4939642;28;20093;-77
2022/02/04 03:58:11;;;;;;;795.22;412.17;;;;;;;;;;4995468;28;20087;-78
2022/02/04 04:00:37;;;;;;;796.05;420.55;;;;;;;;;;4937415;28;20058;-77
2022/02/04 04:03:04;;;;;;;796.95;419.05;;;;;;;;;;4983200;28;20055;-77
2022/02/04 04:05:30;;;;;;;795.40;415.88;;;;;;;;;;4965998;28;20559;-77
2022/02/04 04:07:56;;;;;;;794.33;408.80;;;;;;;;;;4944610;28;20020;-78
2022/02/04 04:10:25;;;;;;;792.33;412.98;;;;;;;;;;4976400;28;20033;-78
2022/02/04 04:12:53;;;;;;;798.55;419.17;;;;;;;;;;4960866;28;20114;-78
2022/02/04 04:15:19;;;;;;;794.05;413.73;;;;;;;;;;4957393;28;20041;-78
2022/02/04 04:17:46;;;;;;;796.38;419.92;;;;;;;;;;4966963;28;20031;-78
2022/02/04 04:20:14;;;;;;;800.53;422.77;;;;;;;;;;4973947;28;20406;-78
2022/02/04 04:22:40;;;;;;;795.45;418.42;;;;;;;;;;4946499;28;20372;-77
2022/02/04 04:25:07;;;;;;;795.65;417.92;;;;;;;;;;4951309;28;20481;-78
2022/02/04 04:27:33;;;;;;;794.67;412.92;;;;;;;;;;4982386;28;20035;-78
2022/02/04 04:29:59;;;;;;;795.40;418.40;;;;;;;;;;4962815;28;20040;-78
2022/02/04 04:32:26;;;;;;;795.78;414.00;;;;;;;;;;4968810;28;20036;-77
2022/02/04 04:34:53;;;;;;;797.95;423.73;;;;;;;;;;4947142;28;20040;-77
2022/02/04 04:37:19;;;;;;;792.90;407.85;;;;;;;;;;4963703;28;20025;-77
2022/02/04 04:40:28;;;;;;;798.72;423.75;;;;;;;;;;4979100;28;20462;-78
2022/02/04 04:43:07;;;;;;;795.80;414.73;;;;;;;;;;4978306;28;20093;-77
2022/02/04 05:29:14;;;;;;;796.33;416.88;;;;;;;;;;4949123;28;20039;-79
2022/02/04 05:31:41;;;;;;;794.22;414.30;;;;;;;;;;4959498;28;20108;-77
2022/02/04 05:34:07;;;;;;;799.08;423.55;;;;;;;;;;4952125;28;20034;-77
2022/02/04 05:36:37;;;;;;;795.13;417.10;;;;;;;;;;4955564;28;20458;-77
2022/02/04 05:39:03;;;;;;;796.15;415.83;;;;;;;;;;4977338;28;20570;-78
2022/02/04 05:41:36;;;;;;;795.47;416.90;;;;;;;;;;4962296;28;20465;-77
2022/02/04 05:44:08;;;;;;;795.15;413.73;;;;;;;;;;4958869;28;20028;-77
2022/02/04 05:46:45;;;;;;;794.65;412.08;;;;;;;;;;4986739;28;20030;-77
2022/02/04 05:49:12;;;;;;;791.40;409.25;;;;;;;;;;4979705;28;20050;-77
2022/02/04 05:51:58;;;;;;;793.97;415.40;;;;;;;;;;4955363;28;20114;-78
2022/02/04 05:55:22;;;;;;;792.20;410.45;;;;;;;;;;4948610;28;20069;-78
2022/02/04 05:57:21;;;;;;;;;;;;;;;;;;4974570;28;20409;-78
2022/02/04 06:02:44;;;;;;;788.58;398.73;;;;;;;;;;4944024;28;20476;-78
2022/02/04 06:05:24;;;;;;;794.92;408.38;;;;;;;;;;4971531;28;20043;-77
2022/02/04 06:10:52;;;;;;;794.28;412.63;;;;;;;;;;4958863;28;20062;-77
2022/02/04 06:23:53;;;;;;;791.58;402.77;;;;;;;;;;4958749;28;20039;-78
2022/02/04 06:26:19;;;;;;;794.75;419.08;;;;;;;;;;4961211;28;20023;-78
2022/02/04 06:28:45;;;;;;;792.90;415.08;;;;;;;;;;4973861;28;20035;-78
2022/02/04 06:31:11;;;;;;;793.22;407.17;;;;;;;;;;4943068;28;20066;-77
2022/02/04 06:33:38;;;;;;;790.75;405.15;;;;;;;;;;4942383;28;20035;-77
2022/02/04 06:36:04;;;;;;;793.33;410.92;;;;;;;;;;4969433;28;20041;-77
2022/02/04 06:38:30;;;;;;;793.08;412.13;;;;;;;;;;4956712;28;20525;-78
2022/02/04 06:40:56;;;;;;;791.70;409.33;;;;;;;;;;4959603;28;20031;-78
2022/02/04 06:43:22;;;;;;;792.35;409.83;;;;;;;;;;4986616;28;20706;-78
2022/02/04 06:45:48;;;;;;;792.08;408.15;;;;;;;;;;4957507;28;20116;-77
2022/02/04 06:48:14;;;;;;;790.42;408.23;;;;;;;;;;4964887;28;20031;-77
2022/02/04 06:50:40;;;;;;;793.05;410.33;;;;;;;;;;4968453;28;20027;-77
2022/02/04 06:53:06;;;;;;;790.58;409.08;;;;;;;;;;4986290;28;20177;-77
2022/02/04 06:55:32;;;;;;;789.22;402.75;;;;;;;;;;4948647;28;20391;-77
2022/02/04 06:57:59;;;;;;;795.55;414.35;;;;;;;;;;4960683;28;20031;-77
2022/02/04 07:00:27;;;;;;;794.58;413.73;;;;;;;;;;4961510;28;20542;-78
2022/02/04 07:02:54;;;;;;;790.95;404.90;;;;;;;;;;4970675;28;20029;-77
2022/02/04 07:05:22;;;;;;;790.22;404.95;;;;;;;;;;4964301;28;20050;-76
2022/02/04 07:08:06;;;;;;;790.67;408.48;;;;;;;;;;4957909;28;20383;-77
2022/02/04 07:10:40;;;;;;;793.13;408.73;;;;;;;;;;4943614;28;20039;-77
2022/02/04 07:13:31;;;;;;;788.95;397.52;;;;;;;;;;5005879;28;20150;-76
2022/02/04 07:16:21;;;;;;;791.00;406.23;;;;;;;;;;4967532;28;20138;-78
2022/02/04 07:21:25;;;;;;;787.55;400.05;;;;;;;;;;4957737;28;20092;-77
2022/02/04 07:23:51;;;;;;;791.83;404.02;;;;;;;;;;4954446;28;20039;-78
2022/02/04 07:26:17;;;;;;;788.83;403.45;;;;;;;;;;4939080;28;20027;-77
2022/02/04 07:28:43;;;;;;;793.17;410.73;;;;;;;;;;5006563;28;20029;-78
2022/02/04 07:31:12;;;;;;;791.83;407.85;;;;;;;;;;4943995;28;20093;-77
2022/02/04 07:33:45;;;;;;;790.35;406.20;;;;;;;;;;4946674;28;20047;-78
2022/02/04 07:41:16;;;;;;;788.35;402.27;;;;;;;;;;4964490;28;20312;-77
2022/02/04 07:43:43;;;;;;;794.92;414.15;;;;;;;;;;4944119;28;20110;-77
2022/02/04 07:46:10;;;;;;;793.60;412.88;;;;;;;;;;4948421;28;20430;-77
2022/02/04 07:48:37;;;;;;;795.75;417.48;;;;;;;;;;4956686;28;20335;-78
2022/02/04 07:51:04;;;;;;;792.88;412.98;;;;;;;;;;4937240;28;20031;-77
2022/02/04 07:53:31;;;;;;;792.13;412.25;;;;;;;;;;4981748;28;20036;-77
2022/02/04 07:56:00;;;;;;;791.35;405.00;;;;;;;;;;4983222;28;20089;-77
2022/02/04 07:58:26;;;;;;;793.67;416.63;;;;;;;;;;4987213;28;20028;-78
2022/02/04 08:00:53;;;;;;;794.83;419.98;;;;;;;;;;4972550;28;20516;-77
2022/02/04 08:05:53;;;;;;;791.95;410.45;;;;;;;;;;4980835;28;20067;-78
2022/02/04 08:08:26;;;;;;;796.15;422.20;;;;;;;;;;4953144;28;20647;-77
2022/02/04 08:13:40;;;;;;;789.72;411.55;;;;;;;;;;4972266;28;20029;-77
2022/02/04 08:16:33;;;;;;;793.72;416.25;;;;;;;;;;4960847;28;20020;-78
2022/02/04 08:29:34;;;;;;;791.22;410.50;;;;;;;;;;4969843;28;20031;-78
2022/02/04 08:32:40;;;;;;;790.92;411.25;;;;;;;;;;4980452;28;20025;-78
2022/02/04 08:53:53;;;;;;;793.92;421.00;;;;;;;;;;4952302;29;20539;-79
2022/02/04 08:56:22;;;;;;;793.15;411.38;;;;;;;;;;4946733;28;20639;-77
2022/02/04 08:58:59;;;;;;;793.42;412.42;;;;;;;;;;4976141;28;20081;-78
2022/02/04 09:01:32;;;;;;;794.85;418.23;;;;;;;;;;4967652;28;20028;-78
2022/02/04 09:04:12;;;;;;;795.40;418.00;;;;;;;;;;4982974;28;20022;-78
2022/02/04 09:07:01;;;;;;;791.13;413.17;;;;;;;;;;4981128;28;20111;-77
2022/02/04 09:09:47;;;;;;;791.40;413.02;;;;;;;;;;4968316;28;20311;-78
2022/02/04 09:16:53;;;;;;;795.20;420.73;;;;;;;;;;4970584;28;20028;-77
2022/02/04 09:23:15;;;;;;;797.00;431.30;;;;;;;;;;4955431;28;20030;-78
2022/02/04 09:25:41;;;;;;;800.20;435.55;;;;;;;;;;4981554;28;20050;-78
2022/02/04 09:28:12;;;;;;;799.53;442.02;;;;;;;;;;4978613;28;20028;-78
2022/02/04 09:30:38;;;;;;;799.42;436.48;;;;;;;;;;4966812;28;20031;-76
2022/02/04 09:33:05;;;;;;;798.17;429.90;;;;;;;;;;4976938;28;20044;-76
2022/02/04 09:35:32;;;;;;;799.35;438.30;;;;;;;;;;4959028;28;20050;-78
2022/02/04 09:37:58;;;;;;;798.08;445.60;;;;;;;;;;4975206;28;20063;-78
2022/02/04 09:40:24;;;;;;;796.33;433.77;;;;;;;;;;4953041;28;20043;-76
2022/02/04 09:42:50;;;;;;;802.40;452.58;;;;;;;;;;4950745;28;20031;-77
2022/02/04 09:45:22;;;;;;;807.15;459.92;;;;;;;;;;4952877;28;20550;-78
2022/02/04 09:47:49;;;;;;;799.22;442.27;;;;;;;;;;4970991;28;20038;-77
2022/02/04 09:50:19;;;;;;;804.08;452.27;;;;;;;;;;4951041;28;20574;-77
2022/02/04 10:07:20;;;;;;;798.40;436.83;;;;;;;;;;4951160;28;20082;-78
2022/02/04 10:10:18;;;;;;;800.35;444.45;;;;;;;;;;4948052;28;20050;-76
2022/02/04 10:15:20;;;;;;;806.10;456.25;;;;;;;;;;4950220;29;20039;-78
2022/02/04 10:18:04;;;;;;;801.47;444.77;;;;;;;;;;4947382;28;20035;-77
2022/02/04 10:20:32;;;;;;;799.47;438.42;;;;;;;;;;4949695;28;20079;-77
2022/02/04 10:22:59;;;;;;;803.10;451.08;;;;;;;;;;4948593;28;20062;-77
2022/02/04 10:25:52;;;;;;;802.03;439.10;;;;;;;;;;4945119;28;20161;-78
2022/02/04 10:28:20;;;;;;;800.28;435.67;;;;;;;;;;4956963;28;20045;-78
2022/02/04 10:31:03;;;;;;;798.63;442.80;;;;;;;;;;4959192;28;20035;-78
2022/02/04 10:33:29;;;;;;;800.55;445.02;;;;;;;;;;4950616;28;20053;-75
2022/02/04 10:36:32;;;;;;;803.63;450.58;;;;;;;;;;4949476;28;20524;-79
2022/02/04 10:38:58;;;;;;;798.13;437.05;;;;;;;;;;4966823;28;20119;-79
2022/02/04 10:41:31;;;;;;;796.70;431.42;;;;;;;;;;4947399;29;20400;-77
2022/02/04 10:44:06;;;;;;;804.40;448.40;;;;;;;;;;4976980;28;20510;-79
2022/02/04 10:46:41;;;;;;;804.53;451.67;;;;;;;;;;4943158;28;20035;-77
2022/02/04 10:50:02;;;;;;;802.20;447.65;;;;;;;;;;4965431;28;20938;-78
2022/02/04 11:05:14;;;;;;;803.65;455.83;;;;;;;;;;4951244;28;20055;-76
2022/02/04 11:10:26;;;;;;;810.25;461.80;;;;;;;;;;4983982;28;20100;-77
2022/02/04 11:52:38;;;;;;;812.22;473.58;;;;;;;;;;4999925;28;20088;-79
2022/02/04 11:55:09;;;;;;;811.40;467.52;;;;;;;;;;4983920;28;20038;-78
2022/02/04 11:57:37;;;;;;;808.55;465.88;;;;;;;;;;5001344;28;20042;-78
2022/02/04 12:00:18;;;;;;;815.15;478.98;;;;;;;;;;4982525;28;20053;-77
2022/02/04 12:02:51;;;;;;;812.28;471.45;;;;;;;;;;4983137;28;20029;-78
2022/02/04 12:05:17;;;;;;;813.65;473.65;;;;;;;;;;4984417;28;20316;-78
2022/02/04 12:07:45;;;;;;;810.28;467.27;;;;;;;;;;4962536;28;20399;-77
2022/02/04 12:10:13;;;;;;;811.35;468.92;;;;;;;;;;4940348;28;20028;-77
2022/02/04 12:12:59;;;;;;;809.97;464.63;;;;;;;;;;4965803;28;20034;-76
2022/02/04 12:15:31;;;;;;;803.78;440.80;;;;;;;;;;4969301;28;20031;-77
2022/02/04 12:17:59;;;;;;;804.13;446.42;;;;;;;;;;4960675;28;20034;-78
2022/02/04 12:20:43;;;;;;;807.53;457.00;;;;;;;;;;4942081;28;20023;-77
2022/02/04 12:23:09;;;;;;;803.90;447.33;;;;;;;;;;4972202;28;20027;-77
2022/02/04 12:25:56;;;;;;;804.17;448.33;;;;;;;;;;4969231;28;20030;-77
2022/02/04 12:28:44;;;;;;;804.33;445.58;;;;;;;;;;4945702;28;20027;-77
2022/02/04 12:31:26;;;;;;;799.63;433.52;;;;;;;;;;4969741;28;20034;-78
2022/02/04 12:33:54;;;;;;;798.92;424.98;;;;;;;;;;4938074;29;20122;-79
2022/02/04 12:36:22;;;;;;;797.00;431.73;;;;;;;;;;4970484;28;20237;-78
2022/02/04 12:38:49;;;;;;;797.83;433.08;;;;;;;;;;4959352;28;20154;-78
2022/02/04 12:41:20;;;;;;;797.30;429.35;;;;;;;;;;4970457;28;20031;-78
2022/02/04 12:43:48;;;;;;;798.22;433.48;;;;;;;;;;4956737;28;20050;-78
2022/02/04 12:46:14;;;;;;;797.97;433.10;;;;;;;;;;4955539;28;20383;-79
2022/02/04 12:48:41;;;;;;;796.05;429.70;;;;;;;;;;4962373;28;20053;-77
2022/02/04 12:51:08;;;;;;;794.95;423.50;;;;;;;;;;4952751;28;20330;-77
2022/02/04 12:53:41;;;;;;;790.88;416.08;;;;;;;;;;4965873;28;20422;-78
2022/02/04 12:56:20;;;;;;;789.05;412.92;;;;;;;;;;4973757;28;20527;-76
2022/02/04 13:07:32;;;;;;;784.40;397.50;;;;;;;;;;4985831;28;20061;-78
2022/02/04 13:09:58;;;;;;;780.65;385.05;;;;;;;;;;5000782;28;20028;-76
2022/02/04 13:12:24;;;;;;;781.47;397.08;;;;;;;;;;4963731;28;20036;-78
2022/02/04 13:14:51;;;;;;;786.40;405.08;;;;;;;;;;4985461;28;20047;-78
2022/02/04 13:17:30;;;;;;;785.55;400.85;;;;;;;;;;4970902;28;20028;-78
2022/02/04 13:19:57;;;;;;;786.00;404.80;;;;;;;;;;4957350;28;20047;-78
2022/02/04 13:22:23;;;;;;;787.08;406.17;;;;;;;;;;4971445;28;20062;-79
2022/02/04 13:25:09;;;;;;;786.85;405.95;;;;;;;;;;4970886;28;20042;-78
2022/02/04 13:27:35;;;;;;;781.58;396.52;;;;;;;;;;4940426;28;20120;-77
2022/02/04 13:30:20;;;;;;;789.08;413.38;;;;;;;;;;4950851;28;20039;-78
2022/02/04 13:32:46;;;;;;;786.30;406.42;;;;;;;;;;4955106;28;20043;-78
2022/02/04 13:35:35;;;;;;;787.80;408.42;;;;;;;;;;5007747;28;20042;-78
2022/02/04 13:38:07;;;;;;;784.30;400.10;;;;;;;;;;4981761;28;20039;-79
2022/02/04 13:41:22;;;;;;;785.47;401.15;;;;;;;;;;4980642;28;20031;-80
2022/02/04 13:46:40;;;;;;;786.83;399.02;;;;;;;;;;4959411;28;20213;-78
2022/02/04 13:49:29;;;;;;;785.78;399.08;;;;;;;;;;4991491;28;20501;-78
2022/02/04 13:52:08;;;;;;;784.35;391.23;;;;;;;;;;4984852;28;20037;-77
2022/02/04 13:57:20;;;;;;;785.60;395.65;;;;;;;;;;4960178;28;20046;-77
2022/02/04 14:00:05;;;;;;;781.78;382.02;;;;;;;;;;4968574;28;20495;-79
2022/02/04 14:02:36;;;;;;;782.65;389.80;;;;;;;;;;4947000;28;20383;-79
2022/02/04 14:05:03;;;;;;;783.70;381.35;;;;;;;;;;4951157;28;20372;-77
2022/02/04 14:07:33;;;;;;;783.95;391.80;;;;;;;;;;4964575;28;20027;-79
2022/02/04 14:10:34;;;;;;;785.67;392.30;;;;;;;;;;4962618;28;20085;-77
2022/02/04 14:13:08;;;;;;;784.03;388.15;;;;;;;;;;4954643;28;20508;-78
2022/02/04 14:15:35;;;;;;;781.92;372.92;;;;;;;;;;4981340;28;20453;-78
2022/02/04 14:18:07;;;;;;;780.40;367.17;;;;;;;;;;4962913;28;20035;-78
2022/02/04 14:20:36;;;;;;;783.88;361.75;;;;;;;;;;4942084;28;20121;-78
2022/02/04 14:23:02;;;;;;;779.72;361.77;;;;;;;;;;4968839;28;20106;-78
2022/02/04 14:25:28;;;;;;;779.42;357.27;;;;;;;;;;4941606;28;20139;-78
2022/02/04 14:27:57;;;;;;;778.08;353.67;;;;;;;;;;4976486;28;20042;-78
2022/02/04 14:30:31;;;;;;;778.13;353.55;;;;;;;;;;4941229;28;20043;-76
2022/02/04 14:33:06;;;;;;;770.42;333.35;;;;;;;;;;4982223;28;20032;-79
2022/02/04 15:00:36;;;;;;;770.75;312.05;;;;;;;;;;4948685;28;20495;-78
2022/02/04 15:03:13;;;;;;;773.80;318.88;;;;;;;;;;4949707;28;20165;-78
2022/02/04 15:05:41;;;;;;;772.65;313.15;;;;;;;;;;4944559;28;20067;-79
2022/02/04 15:08:11;;;;;;;776.83;322.95;;;;;;;;;;4965460;28;20026;-79
2022/02/04 15:10:39;;;;;;;776.50;325.88;;;;;;;;;;4970611;28;20031;-78
2022/02/04 15:13:11;;;;;;;772.75;323.73;;;;;;;;;;4976511;28;20046;-78
2022/02/04 15:15:37;;;;;;;772.97;322.08;;;;;;;;;;4955126;28;20027;-78
2022/02/04 15:18:03;;;;;;;775.65;323.85;;;;;;;;;;4954382;28;20041;-79
2022/02/04 15:20:30;;;;;;;778.67;333.70;;;;;;;;;;4941969;28;20063;-78
2022/02/04 15:22:56;;;;;;;779.28;335.42;;;;;;;;;;4937079;28;20470;-79
2022/02/04 15:25:41;;;;;;;776.25;328.02;;;;;;;;;;5020288;28;20126;-78
2022/02/04 15:30:37;;;;;;;775.67;325.75;;;;;;;;;;4948156;29;20069;-78
2022/02/04 15:33:03;;;;;;;776.08;329.15;;;;;;;;;;4945559;28;20364;-78
2022/02/04 15:35:30;;;;;;;778.25;331.55;;;;;;;;;;4958670;28;20043;-78
2022/02/04 15:37:56;;;;;;;776.08;326.05;;;;;;;;;;4974089;28;20063;-79
2022/02/04 15:40:23;;;;;;;772.30;321.10;;;;;;;;;;4968543;28;20055;-78
2022/02/04 15:42:59;;;;;;;774.05;323.92;;;;;;;;;;4959428;28;20066;-79
2022/02/04 15:46:01;;;;;;;771.05;321.15;;;;;;;;;;4947854;28;20138;-77
2022/02/04 15:51:12;;;;;;;767.85;308.20;;;;;;;;;;4971209;28;20050;-78
2022/02/04 15:54:37;;;;;;;769.28;308.88;;;;;;;;;;4973856;28;20239;-78
2022/02/04 15:59:06;;;;;;;768.05;306.65;;;;;;;;;;4976676;28;20045;-79
2022/02/04 16:02:04;;;;;;;769.88;307.38;;;;;;;;;;4965637;28;20372;-78
2022/02/04 16:04:32;;;;;;;769.53;309.60;;;;;;;;;;4949308;28;20035;-78
2022/02/04 16:06:58;;;;;;;772.13;318.75;;;;;;;;;;4963494;28;20030;-79
2022/02/04 16:09:25;;;;;;;768.10;313.00;;;;;;;;;;4981307;28;20518;-78
2022/02/04 16:12:01;;;;;;;768.47;309.45;;;;;;;;;;4977570;28;20035;-78
2022/02/04 16:14:33;;;;;;;770.55;314.75;;;;;;;;;;4977439;28;20046;-78
2022/02/04 16:17:26;;;;;;;770.00;308.35;;;;;;;;;;4958435;28;20313;-78
2022/02/04 16:20:51;;;;;;;768.38;308.15;;;;;;;;;;4950178;28;20051;-77
2022/02/04 16:22:59;;;;;;;770.55;311.52;;;;;;;;;;4950754;28;20062;-78
2022/02/04 16:30:48;;;;;;;769.60;307.30;;;;;;;;;;4975353;28;20041;-76
2022/02/04 16:33:14;;;;;;;772.85;313.77;;;;;;;;;;4978607;28;20035;-78
2022/02/04 16:35:40;;;;;;;773.20;313.65;;;;;;;;;;4978060;28;20458;-78
2022/02/04 16:38:09;;;;;;;772.60;318.90;;;;;;;;;;4959296;28;20115;-77
2022/02/04 16:40:41;;;;;;;772.88;316.60;;;;;;;;;;4970086;28;20031;-78
2022/02/04 16:43:07;;;;;;;768.20;311.77;;;;;;;;;;4955696;28;20077;-77
2022/02/04 16:45:33;;;;;;;775.50;323.25;;;;;;;;;;4957187;28;20506;-78
2022/02/04 16:47:59;;;;;;;774.60;322.50;;;;;;;;;;4969450;28;20430;-77
2022/02/04 16:50:26;;;;;;;774.78;322.55;;;;;;;;;;4959845;28;20050;-77
2022/02/04 16:52:52;;;;;;;774.13;322.67;;;;;;;;;;4947666;28;20031;-77
2022/02/04 16:55:19;;;;;;;775.47;323.20;;;;;;;;;;4966136;28;20109;-77
2022/02/04 16:57:47;;;;;;;770.88;316.77;;;;;;;;;;4977192;28;20035;-77
2022/02/04 17:00:25;;;;;;;772.28;312.50;;;;;;;;;;4972518;28;20031;-77
2022/02/04 17:02:52;;;;;;;773.92;316.00;;;;;;;;;;4978173;28;20671;-77
2022/02/04 17:05:21;;;;;;;769.28;313.95;;;;;;;;;;4951630;28;20031;-77
2022/02/04 17:07:55;;;;;;;770.50;313.35;;;;;;;;;;4957315;28;20031;-77
2022/02/04 17:10:29;;;;;;;769.90;308.27;;;;;;;;;;4975919;28;20043;-77
2022/02/04 17:13:00;;;;;;;768.40;307.88;;;;;;;;;;4973164;28;20434;-77
2022/02/04 17:15:29;;;;;;;768.97;310.27;;;;;;;;;;4977667;28;20030;-77
2022/02/04 17:18:02;;;;;;;770.13;310.27;;;;;;;;;;4951431;28;20066;-77
2022/02/04 17:20:29;;;;;;;772.38;313.35;;;;;;;;;;4962288;28;20029;-77
2022/02/04 17:22:56;;;;;;;769.90;312.63;;;;;;;;;;4966078;28;20464;-76
2022/02/04 17:25:28;;;;;;;769.33;310.80;;;;;;;;;;4985545;28;20054;-77
2022/02/04 17:27:56;;;;;;;766.92;301.50;;;;;;;;;;4957076;28;20059;-77
2022/02/04 17:30:22;;;;;;;768.15;305.55;;;;;;;;;;4984239;28;20447;-77
2022/02/04 17:32:51;;;;;;;771.42;307.60;;;;;;;;;;4949644;28;20032;-78
2022/02/04 17:35:18;;;;;;;765.78;304.40;;;;;;;;;;4950904;28;20054;-76
2022/02/04 17:37:45;;;;;;;769.38;307.48;;;;;;;;;;4959802;28;20100;-77
2022/02/04 17:40:13;;;;;;;768.67;303.98;;;;;;;;;;4999907;28;20044;-77
2022/02/04 17:42:40;;;;;;;768.55;303.00;;;;;;;;;;4976745;28;20027;-77
2022/02/04 17:45:09;;;;;;;770.58;306.60;;;;;;;;;;4975095;28;20116;-77
2022/02/04 17:47:35;;;;;;;771.92;308.13;;;;;;;;;;4972553;28;20025;-77
2022/02/04 17:50:16;;;;;;;770.92;307.60;;;;;;;;;;4957321;28;20510;-78
2022/02/04 17:52:51;;;;;;;771.13;306.65;;;;;;;;;;4959949;28;20043;-77
2022/02/04 17:55:25;;;;;;;771.47;302.42;;;;;;;;;;4970256;28;20036;-76
2022/02/04 17:57:55;;;;;;;769.92;303.85;;;;;;;;;;4976698;28;20031;-78
2022/02/04 18:06:13;;;;;;;764.03;292.17;;;;;;;;;;4950606;28;20521;-77
2022/02/04 18:08:39;;;;;;;764.58;294.40;;;;;;;;;;4966730;28;20057;-78
2022/02/04 18:11:05;;;;;;;767.28;298.85;;;;;;;;;;4945878;28;20391;-77
2022/02/04 18:13:32;;;;;;;764.78;293.45;;;;;;;;;;4954127;28;20055;-77
2022/02/04 18:16:00;;;;;;;769.25;298.92;;;;;;;;;;4948309;28;20023;-77
2022/02/04 18:18:27;;;;;;;765.83;295.00;;;;;;;;;;4947537;28;20120;-77
2022/02/04 18:20:53;;;;;;;765.53;297.55;;;;;;;;;;4951329;28;20035;-77
2022/02/04 18:23:20;;;;;;;769.03;296.80;;;;;;;;;;4952105;28;20771;-77
2022/02/04 18:25:53;;;;;;;768.88;301.17;;;;;;;;;;4946148;28;20159;-77
2022/02/04 18:28:22;;;;;;;770.63;302.98;;;;;;;;;;4944837;29;20406;-77
2022/02/04 18:30:48;;;;;;;768.30;293.02;;;;;;;;;;4943320;28;20032;-76
2022/02/04 18:33:14;;;;;;;769.33;297.27;;;;;;;;;;4943764;28;20129;-77
2022/02/04 18:35:42;;;;;;;769.92;300.70;;;;;;;;;;4945032;28;20081;-77
2022/02/04 18:38:30;;;;;;;768.47;299.38;;;;;;;;;;4948515;28;20031;-77
2022/02/04 18:46:05;;;;;;;769.03;297.38;;;;;;;;;;4944844;28;20591;-77
2022/02/04 18:48:42;;;;;;;771.20;298.90;;;;;;;;;;4944206;28;20364;-77
2022/02/04 18:53:58;;;;;;;766.65;291.77;;;;;;;;;;4946301;28;20034;-76
2022/02/04 18:56:44;;;;;;;765.08;295.95;;;;;;;;;;4948538;28;20122;-77
2022/02/04 18:59:11;;;;;;;764.95;287.45;;;;;;;;;;4955380;28;20031;-77
2022/02/04 19:01:37;;;;;;;767.38;297.27;;;;;;;;;;4960126;28;20405;-77
2022/02/04 19:04:07;;;;;;;767.92;296.73;;;;;;;;;;4960225;28;20063;-77
2022/02/04 19:06:40;;;;;;;;;;;;;;;;;;4943051;28;20046;-78
2022/02/04 19:09:07;;;;;;;765.30;286.60;;;;;;;;;;4958485;28;19919;-77
2022/02/04 19:11:48;;;;;;;769.20;301.08;;;;;;;;;;4950518;28;20060;-76
2022/02/04 19:14:19;;;;;;;768.90;302.33;;;;;;;;;;4944507;28;20484;-77
2022/02/04 19:16:59;;;;;;;770.38;309.98;;;;;;;;;;4946684;28;20419;-77
2022/02/04 19:19:37;;;;;;;770.90;306.17;;;;;;;;;;4963333;28;20568;-76
2022/02/04 19:22:18;;;;;;;775.78;315.92;;;;;;;;;;4948796;28;20080;-77
2022/02/04 19:24:46;;;;;;;772.85;314.77;;;;;;;;;;4944619;28;20027;-77
2022/02/04 19:27:12;;;;;;;774.10;313.95;;;;;;;;;;4946626;28;20023;-77
2022/02/04 19:29:45;;;;;;;774.47;315.90;;;;;;;;;;4946520;28;20027;-76
2022/02/04 19:32:12;;;;;;;774.22;317.08;;;;;;;;;;4946518;28;20066;-77
2022/02/04 19:34:38;;;;;;;774.60;322.58;;;;;;;;;;4946568;28;20119;-77
2022/02/04 19:37:04;;;;;;;775.58;321.65;;;;;;;;;;4941496;28;20392;-77
2022/02/04 19:39:30;;;;;;;775.67;318.30;;;;;;;;;;4951866;28;20415;-76
2022/02/04 19:44:23;;;;;;;776.97;321.70;;;;;;;;;;4949324;28;20023;-76
2022/02/04 19:46:54;;;;;;;776.10;328.48;;;;;;;;;;4953622;28;20081;-77
2022/02/04 19:49:23;;;;;;;776.40;328.65;;;;;;;;;;4950069;28;20475;-77
2022/02/04 19:51:58;;;;;;;776.22;322.85;;;;;;;;;;4964123;28;20115;-76
2022/02/04 20:23:35;;;;;;;773.38;318.33;;;;;;;;;;4955385;28;20031;-76
2022/02/04 20:24:47;;;;;;;771.25;310.85;;;;;;;;;;4955071;28;20088;-77
2022/02/04 20:26:55;;;;;;;771.40;309.77;;;;;;;;;;4964558;28;20031;-76
2022/02/04 20:29:22;;;;;;;773.60;317.77;;;;;;;;;;4945513;28;20573;-76
2022/02/04 20:31:48;;;;;;;772.40;310.15;;;;;;;;;;4951303;28;20043;-76
2022/02/04 20:34:14;;;;;;;770.63;312.35;;;;;;;;;;4952923;28;20028;-76
2022/02/04 20:36:41;;;;;;;770.95;308.15;;;;;;;;;;4982624;28;20090;-77
2022/02/04 20:39:08;;;;;;;770.35;311.70;;;;;;;;;;4954833;28;20420;-77